LHA646 EDDM-LFPG
Flight info
| Callsign | LHA646 |
|---|---|
| Flight time | N/A |
| Altitude | 40000 |
| Route | GIVMI Y101 INBED DCT REKDI DCT LOHRE DCT BOMBI DCT RUDUS DCT NOSPA DCT BITBU DCT DIK UN857 TOLVU/N0473F390 DCT RAPOR DCT VEDUS |
| Aircraft | A346/H-SDE1E2FGIJ1RWYZ/S |
Departure
| Time | 2026-05-07 16:58 |
|---|---|
| Airport | Munich Airport (EDDM) |
Arrival
| Time | N/A |
|---|---|
| Airport | Charles de Gaulle International Airport (LFPG) |
| Time | Latitude | Longitude | Altitude | Speed | Heading |
|---|---|---|---|---|---|
| 2026-05-07 15:55 | 48.35372 | 11.78286 | 1489 ft | 0 kts | 83° |
| 2026-05-07 16:33 | 48.35371 | 11.78275 | 1489 ft | 2 kts | 82° |
| 2026-05-07 16:34 | 48.35369 | 11.78253 | 1489 ft | 2 kts | 81° |
| 2026-05-07 16:34 | 48.35367 | 11.78231 | 1489 ft | 2 kts | 81° |
| 2026-05-07 16:34 | 48.35365 | 11.78209 | 1489 ft | 2 kts | 81° |
| 2026-05-07 16:34 | 48.35362 | 11.78187 | 1489 ft | 2 kts | 81° |
| 2026-05-07 16:35 | 48.35361 | 11.78172 | 1489 ft | 0 kts | 81° |
| 2026-05-07 16:39 | 48.35361 | 11.78173 | 1489 ft | 0 kts | 81° |
| 2026-05-07 16:39 | 48.35359 | 11.78160 | 1489 ft | 2 kts | 64° |
| 2026-05-07 16:39 | 48.35349 | 11.78145 | 1489 ft | 2 kts | 24° |
| 2026-05-07 16:40 | 48.35336 | 11.78141 | 1489 ft | 2 kts | 350° |
| 2026-05-07 16:40 | 48.35321 | 11.78147 | 1489 ft | 2 kts | 342° |
| 2026-05-07 16:40 | 48.35307 | 11.78153 | 1489 ft | 2 kts | 346° |
| 2026-05-07 16:40 | 48.35292 | 11.78159 | 1489 ft | 2 kts | 348° |
| 2026-05-07 16:41 | 48.35278 | 11.78163 | 1489 ft | 2 kts | 347° |
| 2026-05-07 16:41 | 48.35263 | 11.78168 | 1489 ft | 2 kts | 347° |
| 2026-05-07 16:41 | 48.35254 | 11.78172 | 1489 ft | 0 kts | 347° |
| 2026-05-07 16:43 | 48.35255 | 11.78171 | 1489 ft | 0 kts | 347° |
| 2026-05-07 16:44 | 48.35278 | 11.78167 | 1489 ft | 5 kts | 355° |
| 2026-05-07 16:44 | 48.35325 | 11.78148 | 1489 ft | 8 kts | 323° |
| 2026-05-07 16:44 | 48.35344 | 11.78055 | 1489 ft | 11 kts | 270° |
| 2026-05-07 16:44 | 48.35337 | 11.77925 | 1489 ft | 13 kts | 263° |
| 2026-05-07 16:45 | 48.35368 | 11.77801 | 1488 ft | 14 kts | 329° |
| 2026-05-07 16:45 | 48.35473 | 11.77761 | 1488 ft | 16 kts | 351° |
| 2026-05-07 16:45 | 48.35593 | 11.77739 | 1487 ft | 17 kts | 354° |
| 2026-05-07 16:45 | 48.35621 | 11.77735 | 1486 ft | 1 kts | 354° |
| 2026-05-07 16:46 | 48.35622 | 11.77735 | 1486 ft | 0 kts | 354° |
| 2026-05-07 16:46 | 48.35636 | 11.77732 | 1486 ft | 4 kts | 354° |
| 2026-05-07 16:46 | 48.35681 | 11.77725 | 1486 ft | 8 kts | 353° |
| 2026-05-07 16:46 | 48.35702 | 11.77721 | 1486 ft | 0 kts | 353° |
| 2026-05-07 16:47 | 48.35721 | 11.77718 | 1486 ft | 4 kts | 354° |
| 2026-05-07 16:47 | 48.35769 | 11.77710 | 1485 ft | 8 kts | 354° |
| 2026-05-07 16:47 | 48.35843 | 11.77696 | 1485 ft | 12 kts | 353° |
| 2026-05-07 16:47 | 48.35857 | 11.77694 | 1485 ft | 0 kts | 353° |
| 2026-05-07 16:50 | 48.35868 | 11.77692 | 1484 ft | 4 kts | 353° |
| 2026-05-07 16:51 | 48.35925 | 11.77687 | 1484 ft | 11 kts | 2° |
| 2026-05-07 16:51 | 48.36021 | 11.77665 | 1483 ft | 15 kts | 350° |
| 2026-05-07 16:51 | 48.36062 | 11.77688 | 1483 ft | 8 kts | 58° |
| 2026-05-07 16:51 | 48.36085 | 11.77811 | 1482 ft | 17 kts | 81° |
| 2026-05-07 16:52 | 48.36105 | 11.78037 | 1482 ft | 26 kts | 83° |
| 2026-05-07 16:52 | 48.36126 | 11.78297 | 1481 ft | 21 kts | 85° |
| 2026-05-07 16:52 | 48.36144 | 11.78556 | 1481 ft | 29 kts | 83° |
| 2026-05-07 16:52 | 48.36169 | 11.78890 | 1479 ft | 33 kts | 84° |
| 2026-05-07 16:53 | 48.36187 | 11.79094 | 1478 ft | 14 kts | 83° |
| 2026-05-07 16:53 | 48.36199 | 11.79263 | 1477 ft | 17 kts | 84° |
| 2026-05-07 16:53 | 48.36213 | 11.79457 | 1476 ft | 19 kts | 84° |
| 2026-05-07 16:53 | 48.36230 | 11.79677 | 1475 ft | 22 kts | 83° |
| 2026-05-07 16:54 | 48.36249 | 11.79920 | 1474 ft | 24 kts | 84° |
| 2026-05-07 16:54 | 48.36269 | 11.80186 | 1472 ft | 26 kts | 83° |
| 2026-05-07 16:54 | 48.36292 | 11.80473 | 1470 ft | 28 kts | 83° |
| 2026-05-07 16:54 | 48.36315 | 11.80779 | 1469 ft | 30 kts | 83° |
| 2026-05-07 16:55 | 48.36340 | 11.81104 | 1467 ft | 32 kts | 83° |
| 2026-05-07 16:55 | 48.36366 | 11.81447 | 1466 ft | 33 kts | 83° |
| 2026-05-07 16:55 | 48.36390 | 11.81762 | 1465 ft | 17 kts | 83° |
| 2026-05-07 16:55 | 48.36394 | 11.81908 | 1465 ft | 13 kts | 97° |
| 2026-05-07 16:56 | 48.36395 | 11.82056 | 1465 ft | 14 kts | 86° |
| 2026-05-07 16:56 | 48.36404 | 11.82134 | 1465 ft | 2 kts | 43° |
| 2026-05-07 16:56 | 48.36556 | 11.82116 | 1465 ft | 23 kts | 351° |
| 2026-05-07 16:57 | 48.36669 | 11.82007 | 1464 ft | 19 kts | 282° |
| 2026-05-07 16:57 | 48.36648 | 11.81606 | 1465 ft | 74 kts | 264° |
| 2026-05-07 16:57 | 48.36560 | 11.80466 | 1469 ft | 143 kts | 264° |
| 2026-05-07 16:57 | 48.36418 | 11.78727 | 1603 ft | 185 kts | 264° |
| 2026-05-07 16:58 | 48.36082 | 11.76827 | 2191 ft | 193 kts | 240° |
| 2026-05-07 16:58 | 48.35513 | 11.75014 | 2863 ft | 197 kts | 258° |
| 2026-05-07 16:58 | 48.35432 | 11.72949 | 3594 ft | 199 kts | 281° |
| 2026-05-07 16:58 | 48.35734 | 11.70930 | 4365 ft | 201 kts | 281° |
| 2026-05-07 16:59 | 48.35732 | 11.68836 | 5101 ft | 207 kts | 261° |
| 2026-05-07 16:59 | 48.35289 | 11.66755 | 5791 ft | 214 kts | 256° |
| 2026-05-07 16:59 | 48.35352 | 11.64475 | 6174 ft | 236 kts | 292° |
| 2026-05-07 16:59 | 48.36446 | 11.62440 | 6474 ft | 264 kts | 315° |
| 2026-05-07 17:00 | 48.37630 | 11.60331 | 6892 ft | 265 kts | 295° |
| 2026-05-07 17:00 | 48.38076 | 11.57688 | 7025 ft | 264 kts | 273° |
| 2026-05-07 17:00 | 48.38331 | 11.54944 | 7018 ft | 264 kts | 289° |
| 2026-05-07 17:00 | 48.39104 | 11.52388 | 7268 ft | 274 kts | 297° |
| 2026-05-07 17:01 | 48.40031 | 11.49923 | 8256 ft | 274 kts | 300° |
| 2026-05-07 17:01 | 48.41095 | 11.47599 | 9279 ft | 272 kts | 309° |
| 2026-05-07 17:01 | 48.42385 | 11.45533 | 10144 ft | 276 kts | 317° |
| 2026-05-07 17:01 | 48.44035 | 11.44001 | 10895 ft | 287 kts | 336° |
| 2026-05-07 17:02 | 48.46040 | 11.43210 | 11375 ft | 306 kts | 345° |
| 2026-05-07 17:02 | 48.48148 | 11.42535 | 11784 ft | 321 kts | 342° |
| 2026-05-07 17:02 | 48.50312 | 11.41433 | 12323 ft | 332 kts | 337° |
| 2026-05-07 17:02 | 48.52522 | 11.40127 | 12708 ft | 350 kts | 336° |
| 2026-05-07 17:03 | 48.54851 | 11.38747 | 13266 ft | 363 kts | 337° |
| 2026-05-07 17:03 | 48.57222 | 11.37370 | 14108 ft | 368 kts | 337° |
| 2026-05-07 17:03 | 48.59500 | 11.36068 | 14922 ft | 371 kts | 338° |
| 2026-05-07 17:03 | 48.61933 | 11.34690 | 15725 ft | 375 kts | 337° |
| 2026-05-07 17:04 | 48.64388 | 11.33305 | 16523 ft | 379 kts | 337° |
| 2026-05-07 17:04 | 48.66874 | 11.31898 | 17312 ft | 383 kts | 335° |
| 2026-05-07 17:04 | 48.69274 | 11.30081 | 18067 ft | 385 kts | 327° |
| 2026-05-07 17:04 | 48.71560 | 11.28019 | 18831 ft | 388 kts | 326° |
| 2026-05-07 17:05 | 48.73915 | 11.25856 | 19593 ft | 392 kts | 327° |
| 2026-05-07 17:05 | 48.76232 | 11.23746 | 20318 ft | 396 kts | 327° |
| 2026-05-07 17:05 | 48.78599 | 11.21614 | 21030 ft | 400 kts | 327° |
| 2026-05-07 17:05 | 48.81020 | 11.19452 | 21740 ft | 403 kts | 327° |
| 2026-05-07 17:06 | 48.83414 | 11.17321 | 22424 ft | 407 kts | 328° |
| 2026-05-07 17:06 | 48.85888 | 11.15124 | 23111 ft | 410 kts | 328° |
| 2026-05-07 17:06 | 48.88362 | 11.12930 | 23783 ft | 414 kts | 328° |
| 2026-05-07 17:06 | 48.90865 | 11.10709 | 24439 ft | 417 kts | 328° |
| 2026-05-07 17:07 | 48.93376 | 11.08479 | 25071 ft | 421 kts | 328° |
| 2026-05-07 17:07 | 48.95895 | 11.06242 | 25683 ft | 424 kts | 328° |
| 2026-05-07 17:07 | 48.98467 | 11.03955 | 26276 ft | 428 kts | 328° |
| 2026-05-07 17:07 | 49.01065 | 11.01641 | 26850 ft | 432 kts | 328° |
| 2026-05-07 17:08 | 49.03701 | 10.99292 | 27398 ft | 436 kts | 328° |
| 2026-05-07 17:08 | 49.06237 | 10.97029 | 27916 ft | 439 kts | 328° |
| 2026-05-07 17:08 | 49.08865 | 10.94680 | 28427 ft | 443 kts | 328° |
| 2026-05-07 17:08 | 49.11549 | 10.92279 | 28944 ft | 446 kts | 328° |
| 2026-05-07 17:09 | 49.14248 | 10.89861 | 29459 ft | 450 kts | 328° |
| 2026-05-07 17:09 | 49.16951 | 10.87435 | 30020 ft | 451 kts | 328° |
| 2026-05-07 17:09 | 49.19629 | 10.85033 | 30747 ft | 449 kts | 328° |
| 2026-05-07 17:09 | 49.22314 | 10.82619 | 31438 ft | 446 kts | 328° |
| 2026-05-07 17:10 | 49.24874 | 10.80315 | 31951 ft | 445 kts | 328° |
| 2026-05-07 17:10 | 49.27558 | 10.77895 | 32348 ft | 446 kts | 328° |
| 2026-05-07 17:10 | 49.30237 | 10.75475 | 32695 ft | 447 kts | 328° |
| 2026-05-07 17:10 | 49.32941 | 10.73034 | 33046 ft | 448 kts | 328° |
| 2026-05-07 17:11 | 49.35634 | 10.70597 | 33400 ft | 449 kts | 328° |
| 2026-05-07 17:11 | 49.38313 | 10.68167 | 33743 ft | 450 kts | 328° |
| 2026-05-07 17:11 | 49.41016 | 10.65715 | 34079 ft | 451 kts | 328° |
| 2026-05-07 17:11 | 49.43726 | 10.63252 | 34428 ft | 451 kts | 328° |
| 2026-05-07 17:12 | 49.46433 | 10.60786 | 34813 ft | 452 kts | 328° |
| 2026-05-07 17:12 | 49.49099 | 10.58356 | 35178 ft | 451 kts | 328° |
| 2026-05-07 17:12 | 49.51832 | 10.55861 | 35562 ft | 451 kts | 328° |
| 2026-05-07 17:12 | 49.54510 | 10.53412 | 35926 ft | 451 kts | 328° |
| 2026-05-07 17:13 | 49.57219 | 10.50929 | 36261 ft | 451 kts | 327° |
| 2026-05-07 17:13 | 49.59807 | 10.48297 | 36549 ft | 451 kts | 323° |
| 2026-05-07 17:13 | 49.62306 | 10.45357 | 36815 ft | 451 kts | 319° |
| 2026-05-07 17:13 | 49.64650 | 10.42183 | 37072 ft | 451 kts | 315° |
| 2026-05-07 17:14 | 49.66867 | 10.38745 | 37336 ft | 451 kts | 311° |
| 2026-05-07 17:14 | 49.68932 | 10.35071 | 37602 ft | 450 kts | 307° |
| 2026-05-07 17:14 | 49.70822 | 10.31210 | 37866 ft | 450 kts | 303° |
| 2026-05-07 17:14 | 49.72591 | 10.27255 | 38128 ft | 450 kts | 302° |
| 2026-05-07 17:15 | 49.74343 | 10.23264 | 38357 ft | 450 kts | 302° |
| 2026-05-07 17:15 | 49.76118 | 10.19208 | 38564 ft | 452 kts | 302° |
| 2026-05-07 17:15 | 49.77876 | 10.15187 | 38775 ft | 453 kts | 302° |
| 2026-05-07 17:15 | 49.79659 | 10.11111 | 38985 ft | 455 kts | 302° |
| 2026-05-07 17:16 | 49.81454 | 10.07007 | 39197 ft | 456 kts | 302° |
| 2026-05-07 17:16 | 49.83205 | 10.03000 | 39395 ft | 457 kts | 302° |
| 2026-05-07 17:16 | 49.84989 | 9.98910 | 39589 ft | 459 kts | 302° |
| 2026-05-07 17:16 | 49.86791 | 9.94778 | 39764 ft | 460 kts | 302° |
| 2026-05-07 17:17 | 49.88579 | 9.90669 | 39928 ft | 462 kts | 302° |
| 2026-05-07 17:17 | 49.90401 | 9.86475 | 40023 ft | 464 kts | 302° |
| 2026-05-07 17:17 | 49.94018 | 9.78127 | 40033 ft | 465 kts | 302° |
| 2026-05-07 17:18 | 49.97548 | 9.69953 | 40036 ft | 465 kts | 302° |
| 2026-05-07 17:18 | 50.01149 | 9.61567 | 40029 ft | 465 kts | 300° |
| 2026-05-07 17:19 | 50.04020 | 9.52825 | 40028 ft | 462 kts | 290° |
| 2026-05-07 17:19 | 50.05832 | 9.43229 | 40028 ft | 460 kts | 280° |
| 2026-05-07 17:20 | 50.06467 | 9.33526 | 40038 ft | 458 kts | 269° |
| 2026-05-07 17:20 | 50.06366 | 9.23588 | 40039 ft | 458 kts | 267° |
| 2026-05-07 17:21 | 50.06211 | 9.13712 | 40046 ft | 458 kts | 268° |
| 2026-05-07 17:21 | 50.06057 | 9.03749 | 40046 ft | 457 kts | 268° |
| 2026-05-07 17:22 | 50.05901 | 8.93873 | 40043 ft | 457 kts | 268° |
| 2026-05-07 17:22 | 50.05737 | 8.84113 | 40041 ft | 457 kts | 268° |
| 2026-05-07 17:23 | 50.05596 | 8.74173 | 40041 ft | 457 kts | 268° |
| 2026-05-07 17:23 | 50.05503 | 8.64283 | 40044 ft | 458 kts | 269° |
| 2026-05-07 17:24 | 50.05399 | 8.54365 | 40048 ft | 458 kts | 268° |
| 2026-05-07 17:24 | 50.05282 | 8.44519 | 40048 ft | 457 kts | 268° |
| 2026-05-07 17:25 | 50.05152 | 8.34569 | 40046 ft | 457 kts | 268° |
| 2026-05-07 17:25 | 50.05015 | 8.24722 | 40044 ft | 457 kts | 268° |
| 2026-05-07 17:26 | 50.04868 | 8.14839 | 40039 ft | 457 kts | 268° |
| 2026-05-07 17:26 | 50.04716 | 8.04935 | 40031 ft | 457 kts | 268° |
| 2026-05-07 17:27 | 50.04577 | 7.95098 | 40025 ft | 457 kts | 268° |